sensor_id;sensor_type;location;lat;lon;timestamp;temperature;humidity
46720;DHT22;32452;51.382;-0.002;2023-10-31T00:01:48;9.00;99.90
46720;DHT22;32452;51.382;-0.002;2023-10-31T00:04:35;9.00;99.90
46720;DHT22;32452;51.382;-0.002;2023-10-31T00:07:21;8.90;99.90
46720;DHT22;32452;51.382;-0.002;2023-10-31T00:10:07;8.90;99.90
46720;DHT22;32452;51.382;-0.002;2023-10-31T00:12:54;8.90;99.90
46720;DHT22;32452;51.382;-0.002;2023-10-31T00:15:39;8.90;99.90
46720;DHT22;32452;51.382;-0.002;2023-10-31T00:18:25;8.90;99.90
46720;DHT22;32452;51.382;-0.002;2023-10-31T00:21:10;8.90;99.90
46720;DHT22;32452;51.382;-0.002;2023-10-31T00:23:56;8.80;99.90
46720;DHT22;32452;51.382;-0.002;2023-10-31T00:26:42;8.80;99.90
46720;DHT22;32452;51.382;-0.002;2023-10-31T00:29:27;8.80;99.90
46720;DHT22;32452;51.382;-0.002;2023-10-31T00:32:13;8.80;99.90
46720;DHT22;32452;51.382;-0.002;2023-10-31T00:34:59;8.80;99.90
46720;DHT22;32452;51.382;-0.002;2023-10-31T00:37:45;8.80;99.90
46720;DHT22;32452;51.382;-0.002;2023-10-31T00:40:30;8.80;99.90
46720;DHT22;32452;51.382;-0.002;2023-10-31T00:43:16;8.80;99.90
46720;DHT22;32452;51.382;-0.002;2023-10-31T00:46:03;8.80;99.90
46720;DHT22;32452;51.382;-0.002;2023-10-31T00:48:49;8.80;99.90
46720;DHT22;32452;51.382;-0.002;2023-10-31T00:51:34;8.80;99.90
46720;DHT22;32452;51.382;-0.002;2023-10-31T00:54:20;8.90;99.90
46720;DHT22;32452;51.382;-0.002;2023-10-31T00:57:05;8.90;99.90
46720;DHT22;32452;51.382;-0.002;2023-10-31T00:59:51;8.90;99.90
46720;DHT22;32452;51.382;-0.002;2023-10-31T01:02:37;8.90;99.90
46720;DHT22;32452;51.382;-0.002;2023-10-31T01:05:22;8.90;99.90
46720;DHT22;32452;51.382;-0.002;2023-10-31T01:08:08;8.80;99.90
46720;DHT22;32452;51.382;-0.002;2023-10-31T01:10:54;8.80;99.90
46720;DHT22;32452;51.382;-0.002;2023-10-31T01:13:39;8.80;99.90
46720;DHT22;32452;51.382;-0.002;2023-10-31T01:16:25;8.90;99.90
46720;DHT22;32452;51.382;-0.002;2023-10-31T01:19:11;8.90;99.90
46720;DHT22;32452;51.382;-0.002;2023-10-31T01:21:56;8.90;99.90
46720;DHT22;32452;51.382;-0.002;2023-10-31T01:24:42;8.90;99.90
46720;DHT22;32452;51.382;-0.002;2023-10-31T01:27:27;8.80;99.90
46720;DHT22;32452;51.382;-0.002;2023-10-31T01:30:13;8.80;99.90
46720;DHT22;32452;51.382;-0.002;2023-10-31T01:32:59;8.80;99.90
46720;DHT22;32452;51.382;-0.002;2023-10-31T01:35:45;8.80;99.90
46720;DHT22;32452;51.382;-0.002;2023-10-31T01:38:30;8.70;99.90
46720;DHT22;32452;51.382;-0.002;2023-10-31T01:41:16;8.70;99.90
46720;DHT22;32452;51.382;-0.002;2023-10-31T01:44:01;8.70;99.90
46720;DHT22;32452;51.382;-0.002;2023-10-31T01:46:47;8.60;99.90
46720;DHT22;32452;51.382;-0.002;2023-10-31T01:49:32;8.60;99.90
46720;DHT22;32452;51.382;-0.002;2023-10-31T01:52:18;8.60;99.90
46720;DHT22;32452;51.382;-0.002;2023-10-31T01:55:04;8.60;99.90
46720;DHT22;32452;51.382;-0.002;2023-10-31T01:57:50;8.60;99.90
46720;DHT22;32452;51.382;-0.002;2023-10-31T02:00:37;8.60;99.90
46720;DHT22;32452;51.382;-0.002;2023-10-31T02:03:24;8.60;99.90
46720;DHT22;32452;51.382;-0.002;2023-10-31T02:06:10;8.60;99.90
46720;DHT22;32452;51.382;-0.002;2023-10-31T02:08:56;8.60;99.90
46720;DHT22;32452;51.382;-0.002;2023-10-31T02:11:42;8.60;99.90
46720;DHT22;32452;51.382;-0.002;2023-10-31T02:14:27;8.60;99.90
46720;DHT22;32452;51.382;-0.002;2023-10-31T02:17:13;8.50;99.90
46720;DHT22;32452;51.382;-0.002;2023-10-31T02:19:59;8.50;99.90
46720;DHT22;32452;51.382;-0.002;2023-10-31T02:22:44;8.50;99.90
46720;DHT22;32452;51.382;-0.002;2023-10-31T02:25:30;8.50;99.90
46720;DHT22;32452;51.382;-0.002;2023-10-31T02:28:16;8.50;99.90
46720;DHT22;32452;51.382;-0.002;2023-10-31T02:31:01;8.50;99.90
46720;DHT22;32452;51.382;-0.002;2023-10-31T02:33:47;8.50;99.90
46720;DHT22;32452;51.382;-0.002;2023-10-31T02:36:32;8.50;99.90
46720;DHT22;32452;51.382;-0.002;2023-10-31T02:39:19;8.40;99.90
46720;DHT22;32452;51.382;-0.002;2023-10-31T02:42:04;8.50;99.90
46720;DHT22;32452;51.382;-0.002;2023-10-31T02:44:50;8.40;99.90
46720;DHT22;32452;51.382;-0.002;2023-10-31T02:47:36;8.40;99.90
46720;DHT22;32452;51.382;-0.002;2023-10-31T02:50:21;8.50;99.90
46720;DHT22;32452;51.382;-0.002;2023-10-31T02:53:07;8.50;99.90
46720;DHT22;32452;51.382;-0.002;2023-10-31T02:55:52;8.50;99.90
46720;DHT22;32452;51.382;-0.002;2023-10-31T02:58:38;8.50;99.90
46720;DHT22;32452;51.382;-0.002;2023-10-31T03:01:28;8.50;99.90
46720;DHT22;32452;51.382;-0.002;2023-10-31T03:04:14;8.40;99.90
46720;DHT22;32452;51.382;-0.002;2023-10-31T03:06:59;8.50;99.90
46720;DHT22;32452;51.382;-0.002;2023-10-31T03:09:45;8.40;99.90
46720;DHT22;32452;51.382;-0.002;2023-10-31T03:12:31;8.50;99.90
46720;DHT22;32452;51.382;-0.002;2023-10-31T03:15:16;8.50;99.90
46720;DHT22;32452;51.382;-0.002;2023-10-31T03:18:02;8.50;99.90
46720;DHT22;32452;51.382;-0.002;2023-10-31T03:20:48;8.50;99.90
46720;DHT22;32452;51.382;-0.002;2023-10-31T03:23:33;8.50;99.90
46720;DHT22;32452;51.382;-0.002;2023-10-31T03:26:19;8.50;99.90
46720;DHT22;32452;51.382;-0.002;2023-10-31T03:29:07;8.50;99.90
46720;DHT22;32452;51.382;-0.002;2023-10-31T03:31:53;8.50;99.90
46720;DHT22;32452;51.382;-0.002;2023-10-31T03:34:38;8.50;99.90
46720;DHT22;32452;51.382;-0.002;2023-10-31T03:37:23;8.60;99.90
46720;DHT22;32452;51.382;-0.002;2023-10-31T03:40:09;8.60;99.90
46720;DHT22;32452;51.382;-0.002;2023-10-31T03:42:55;8.60;99.90
46720;DHT22;32452;51.382;-0.002;2023-10-31T03:45:41;8.70;99.90
46720;DHT22;32452;51.382;-0.002;2023-10-31T03:48:27;8.70;99.90
46720;DHT22;32452;51.382;-0.002;2023-10-31T03:51:12;8.70;99.90
46720;DHT22;32452;51.382;-0.002;2023-10-31T03:53:58;8.70;99.90
46720;DHT22;32452;51.382;-0.002;2023-10-31T03:56:44;8.80;99.90
46720;DHT22;32452;51.382;-0.002;2023-10-31T03:59:29;8.80;99.90
46720;DHT22;32452;51.382;-0.002;2023-10-31T04:02:15;8.80;99.90
46720;DHT22;32452;51.382;-0.002;2023-10-31T04:05:00;8.80;99.90
46720;DHT22;32452;51.382;-0.002;2023-10-31T04:07:47;8.80;99.90
46720;DHT22;32452;51.382;-0.002;2023-10-31T04:10:34;8.90;99.90
46720;DHT22;32452;51.382;-0.002;2023-10-31T04:13:19;8.90;99.90
46720;DHT22;32452;51.382;-0.002;2023-10-31T04:16:05;9.00;99.90
46720;DHT22;32452;51.382;-0.002;2023-10-31T04:18:51;8.90;99.90
46720;DHT22;32452;51.382;-0.002;2023-10-31T04:21:37;8.90;99.90
46720;DHT22;32452;51.382;-0.002;2023-10-31T04:24:22;9.00;99.90
46720;DHT22;32452;51.382;-0.002;2023-10-31T04:27:08;9.00;99.90
46720;DHT22;32452;51.382;-0.002;2023-10-31T04:29:53;9.00;99.90
46720;DHT22;32452;51.382;-0.002;2023-10-31T04:32:39;9.10;99.90
46720;DHT22;32452;51.382;-0.002;2023-10-31T04:35:25;9.10;99.90
46720;DHT22;32452;51.382;-0.002;2023-10-31T04:38:10;9.10;99.90
46720;DHT22;32452;51.382;-0.002;2023-10-31T04:40:57;9.20;99.90
46720;DHT22;32452;51.382;-0.002;2023-10-31T04:43:42;9.30;99.90
46720;DHT22;32452;51.382;-0.002;2023-10-31T04:46:28;9.30;99.90
46720;DHT22;32452;51.382;-0.002;2023-10-31T04:49:14;9.30;99.90
46720;DHT22;32452;51.382;-0.002;2023-10-31T04:52:03;9.40;99.90
46720;DHT22;32452;51.382;-0.002;2023-10-31T04:54:48;9.40;99.90
46720;DHT22;32452;51.382;-0.002;2023-10-31T04:57:34;9.40;99.90
46720;DHT22;32452;51.382;-0.002;2023-10-31T05:00:19;9.50;99.90
46720;DHT22;32452;51.382;-0.002;2023-10-31T05:03:05;9.50;99.90
46720;DHT22;32452;51.382;-0.002;2023-10-31T05:05:51;9.50;99.90
46720;DHT22;32452;51.382;-0.002;2023-10-31T05:08:37;9.50;99.90
46720;DHT22;32452;51.382;-0.002;2023-10-31T05:11:22;9.50;99.90
46720;DHT22;32452;51.382;-0.002;2023-10-31T05:14:09;9.50;99.90
46720;DHT22;32452;51.382;-0.002;2023-10-31T05:16:58;9.50;99.90
46720;DHT22;32452;51.382;-0.002;2023-10-31T05:19:43;9.50;99.90
46720;DHT22;32452;51.382;-0.002;2023-10-31T05:22:29;9.60;99.90
46720;DHT22;32452;51.382;-0.002;2023-10-31T05:25:14;9.50;99.90
46720;DHT22;32452;51.382;-0.002;2023-10-31T05:28:00;9.50;99.90
46720;DHT22;32452;51.382;-0.002;2023-10-31T05:30:46;9.50;99.90
46720;DHT22;32452;51.382;-0.002;2023-10-31T05:33:32;9.50;99.90
46720;DHT22;32452;51.382;-0.002;2023-10-31T05:36:19;9.50;99.90
46720;DHT22;32452;51.382;-0.002;2023-10-31T05:39:05;9.50;99.90
46720;DHT22;32452;51.382;-0.002;2023-10-31T05:41:50;9.50;99.90
46720;DHT22;32452;51.382;-0.002;2023-10-31T05:44:36;9.50;99.90
46720;DHT22;32452;51.382;-0.002;2023-10-31T05:47:21;9.50;99.90
46720;DHT22;32452;51.382;-0.002;2023-10-31T05:50:08;9.60;99.90
46720;DHT22;32452;51.382;-0.002;2023-10-31T05:52:54;9.60;99.90
46720;DHT22;32452;51.382;-0.002;2023-10-31T05:55:39;9.60;99.90
46720;DHT22;32452;51.382;-0.002;2023-10-31T05:58:25;9.60;99.90
46720;DHT22;32452;51.382;-0.002;2023-10-31T06:01:10;9.60;99.90
46720;DHT22;32452;51.382;-0.002;2023-10-31T06:03:56;9.50;99.90
46720;DHT22;32452;51.382;-0.002;2023-10-31T06:06:42;9.50;99.90
46720;DHT22;32452;51.382;-0.002;2023-10-31T06:09:28;9.50;99.90
46720;DHT22;32452;51.382;-0.002;2023-10-31T06:12:13;9.50;99.90
46720;DHT22;32452;51.382;-0.002;2023-10-31T06:14:59;9.50;99.90
46720;DHT22;32452;51.382;-0.002;2023-10-31T06:17:44;9.40;99.90
46720;DHT22;32452;51.382;-0.002;2023-10-31T06:20:30;9.40;99.90
46720;DHT22;32452;51.382;-0.002;2023-10-31T06:23:16;9.40;99.90
46720;DHT22;32452;51.382;-0.002;2023-10-31T06:26:02;9.40;99.90
46720;DHT22;32452;51.382;-0.002;2023-10-31T06:28:48;9.40;99.90
46720;DHT22;32452;51.382;-0.002;2023-10-31T06:31:53;9.40;99.90
46720;DHT22;32452;51.382;-0.002;2023-10-31T06:34:39;9.40;99.90
46720;DHT22;32452;51.382;-0.002;2023-10-31T06:37:24;9.50;99.90
46720;DHT22;32452;51.382;-0.002;2023-10-31T06:40:11;9.50;99.90
46720;DHT22;32452;51.382;-0.002;2023-10-31T06:42:56;9.50;99.90
46720;DHT22;32452;51.382;-0.002;2023-10-31T06:45:42;9.50;99.90
46720;DHT22;32452;51.382;-0.002;2023-10-31T06:48:28;9.50;99.90
46720;DHT22;32452;51.382;-0.002;2023-10-31T06:51:13;9.50;99.90
46720;DHT22;32452;51.382;-0.002;2023-10-31T06:53:59;9.50;99.90
46720;DHT22;32452;51.382;-0.002;2023-10-31T06:56:44;9.50;99.90
46720;DHT22;32452;51.382;-0.002;2023-10-31T06:59:30;9.50;99.90
46720;DHT22;32452;51.382;-0.002;2023-10-31T07:02:15;9.50;99.90
46720;DHT22;32452;51.382;-0.002;2023-10-31T07:05:01;9.60;99.90
46720;DHT22;32452;51.382;-0.002;2023-10-31T07:07:48;9.60;99.90
46720;DHT22;32452;51.382;-0.002;2023-10-31T07:10:34;9.60;99.90
46720;DHT22;32452;51.382;-0.002;2023-10-31T07:13:20;9.60;99.90
46720;DHT22;32452;51.382;-0.002;2023-10-31T07:16:06;9.70;99.90
46720;DHT22;32452;51.382;-0.002;2023-10-31T07:18:52;9.70;99.90
46720;DHT22;32452;51.382;-0.002;2023-10-31T07:21:37;9.70;99.90
46720;DHT22;32452;51.382;-0.002;2023-10-31T07:24:23;9.70;99.90
46720;DHT22;32452;51.382;-0.002;2023-10-31T07:27:09;9.80;99.90
46720;DHT22;32452;51.382;-0.002;2023-10-31T07:29:55;9.80;99.90
46720;DHT22;32452;51.382;-0.002;2023-10-31T07:32:41;9.80;99.90
46720;DHT22;32452;51.382;-0.002;2023-10-31T07:35:27;9.80;99.90
46720;DHT22;32452;51.382;-0.002;2023-10-31T07:38:13;9.90;99.90
46720;DHT22;32452;51.382;-0.002;2023-10-31T07:40:58;9.90;99.90
46720;DHT22;32452;51.382;-0.002;2023-10-31T07:43:43;9.90;99.90
46720;DHT22;32452;51.382;-0.002;2023-10-31T07:46:29;9.90;99.90
46720;DHT22;32452;51.382;-0.002;2023-10-31T07:49:15;10.00;99.90
46720;DHT22;32452;51.382;-0.002;2023-10-31T07:52:00;10.00;99.90
46720;DHT22;32452;51.382;-0.002;2023-10-31T07:54:46;10.00;99.90
46720;DHT22;32452;51.382;-0.002;2023-10-31T07:57:33;10.10;99.90
46720;DHT22;32452;51.382;-0.002;2023-10-31T08:00:18;10.10;99.90
46720;DHT22;32452;51.382;-0.002;2023-10-31T08:03:04;10.20;99.90
46720;DHT22;32452;51.382;-0.002;2023-10-31T08:05:50;10.20;99.90
46720;DHT22;32452;51.382;-0.002;2023-10-31T08:08:36;10.20;99.90
46720;DHT22;32452;51.382;-0.002;2023-10-31T08:11:22;10.30;99.90
46720;DHT22;32452;51.382;-0.002;2023-10-31T08:14:08;10.30;99.90
46720;DHT22;32452;51.382;-0.002;2023-10-31T08:16:54;10.40;99.90
46720;DHT22;32452;51.382;-0.002;2023-10-31T08:19:40;10.50;99.90
46720;DHT22;32452;51.382;-0.002;2023-10-31T08:22:26;10.50;99.90
46720;DHT22;32452;51.382;-0.002;2023-10-31T08:25:11;10.60;99.90
46720;DHT22;32452;51.382;-0.002;2023-10-31T08:27:58;10.60;99.90
46720;DHT22;32452;51.382;-0.002;2023-10-31T08:30:43;10.70;99.90
46720;DHT22;32452;51.382;-0.002;2023-10-31T08:33:29;10.80;99.90
46720;DHT22;32452;51.382;-0.002;2023-10-31T08:36:15;10.90;99.90
46720;DHT22;32452;51.382;-0.002;2023-10-31T08:39:00;11.00;99.90
46720;DHT22;32452;51.382;-0.002;2023-10-31T08:42:04;11.30;99.90
46720;DHT22;32452;51.382;-0.002;2023-10-31T08:44:50;11.50;99.90
46720;DHT22;32452;51.382;-0.002;2023-10-31T08:47:36;11.70;99.90
46720;DHT22;32452;51.382;-0.002;2023-10-31T08:50:21;12.10;99.90
46720;DHT22;32452;51.382;-0.002;2023-10-31T08:53:08;12.40;99.90
46720;DHT22;32452;51.382;-0.002;2023-10-31T08:55:56;12.60;99.90
46720;DHT22;32452;51.382;-0.002;2023-10-31T08:59:05;12.70;99.90
46720;DHT22;32452;51.382;-0.002;2023-10-31T09:01:50;13.10;99.90
46720;DHT22;32452;51.382;-0.002;2023-10-31T09:04:36;13.80;99.90
46720;DHT22;32452;51.382;-0.002;2023-10-31T09:07:21;14.60;99.90
46720;DHT22;32452;51.382;-0.002;2023-10-31T09:10:07;15.40;99.90
46720;DHT22;32452;51.382;-0.002;2023-10-31T09:12:53;16.10;99.90
46720;DHT22;32452;51.382;-0.002;2023-10-31T09:15:39;16.80;99.90
46720;DHT22;32452;51.382;-0.002;2023-10-31T09:18:24;17.30;99.90
46720;DHT22;32452;51.382;-0.002;2023-10-31T09:21:10;17.80;99.90
46720;DHT22;32452;51.382;-0.002;2023-10-31T09:23:56;18.10;99.90
46720;DHT22;32452;51.382;-0.002;2023-10-31T09:26:42;18.10;99.90
46720;DHT22;32452;51.382;-0.002;2023-10-31T09:29:28;18.10;99.90
46720;DHT22;32452;51.382;-0.002;2023-10-31T09:32:15;18.00;99.90
46720;DHT22;32452;51.382;-0.002;2023-10-31T09:35:01;17.80;99.90
46720;DHT22;32452;51.382;-0.002;2023-10-31T09:37:46;17.80;99.90
46720;DHT22;32452;51.382;-0.002;2023-10-31T09:40:39;18.10;99.90
46720;DHT22;32452;51.382;-0.002;2023-10-31T09:43:24;18.60;99.90
46720;DHT22;32452;51.382;-0.002;2023-10-31T09:46:10;19.00;99.90
46720;DHT22;32452;51.382;-0.002;2023-10-31T09:48:56;19.30;99.90
46720;DHT22;32452;51.382;-0.002;2023-10-31T09:51:42;19.40;99.90
46720;DHT22;32452;51.382;-0.002;2023-10-31T09:54:28;19.70;99.90
46720;DHT22;32452;51.382;-0.002;2023-10-31T09:57:14;19.80;99.20
46720;DHT22;32452;51.382;-0.002;2023-10-31T10:00:00;20.20;98.90
46720;DHT22;32452;51.382;-0.002;2023-10-31T10:02:46;20.50;97.80
46720;DHT22;32452;51.382;-0.002;2023-10-31T10:05:31;20.80;97.30
46720;DHT22;32452;51.382;-0.002;2023-10-31T10:08:19;21.10;96.40
46720;DHT22;32452;51.382;-0.002;2023-10-31T10:11:05;21.30;95.50
46720;DHT22;32452;51.382;-0.002;2023-10-31T10:13:52;21.60;94.50
46720;DHT22;32452;51.382;-0.002;2023-10-31T10:16:38;21.70;93.40
46720;DHT22;32452;51.382;-0.002;2023-10-31T10:19:24;21.70;92.70
46720;DHT22;32452;51.382;-0.002;2023-10-31T10:22:10;21.80;92.20
46720;DHT22;32452;51.382;-0.002;2023-10-31T10:24:55;21.90;91.70
46720;DHT22;32452;51.382;-0.002;2023-10-31T10:27:45;21.90;90.90
46720;DHT22;32452;51.382;-0.002;2023-10-31T10:30:31;22.10;90.20
46720;DHT22;32452;51.382;-0.002;2023-10-31T10:33:17;22.20;89.60
46720;DHT22;32452;51.382;-0.002;2023-10-31T10:36:03;22.20;88.60
46720;DHT22;32452;51.382;-0.002;2023-10-31T10:38:51;22.40;88.30
46720;DHT22;32452;51.382;-0.002;2023-10-31T10:41:42;22.60;86.20
46720;DHT22;32452;51.382;-0.002;2023-10-31T10:44:34;22.60;84.50
46720;DHT22;32452;51.382;-0.002;2023-10-31T10:47:21;22.60;84.10
46720;DHT22;32452;51.382;-0.002;2023-10-31T10:50:07;22.70;83.60
46720;DHT22;32452;51.382;-0.002;2023-10-31T10:53:07;22.80;82.00
46720;DHT22;32452;51.382;-0.002;2023-10-31T10:55:59;22.90;81.30
46720;DHT22;32452;51.382;-0.002;2023-10-31T11:01:46;22.80;79.30
46720;DHT22;32452;51.382;-0.002;2023-10-31T11:04:33;22.70;79.50
46720;DHT22;32452;51.382;-0.002;2023-10-31T11:07:20;22.60;77.90
46720;DHT22;32452;51.382;-0.002;2023-10-31T11:10:08;22.50;77.70
46720;DHT22;32452;51.382;-0.002;2023-10-31T11:12:54;22.40;78.50
46720;DHT22;32452;51.382;-0.002;2023-10-31T11:15:41;22.50;77.90
46720;DHT22;32452;51.382;-0.002;2023-10-31T11:18:27;22.40;77.10
46720;DHT22;32452;51.382;-0.002;2023-10-31T11:21:13;22.40;77.90
46720;DHT22;32452;51.382;-0.002;2023-10-31T11:24:00;22.40;77.30
46720;DHT22;32452;51.382;-0.002;2023-10-31T11:26:52;22.50;77.20
46720;DHT22;32452;51.382;-0.002;2023-10-31T11:29:38;22.60;76.90
46720;DHT22;32452;51.382;-0.002;2023-10-31T11:32:26;22.70;76.90
46720;DHT22;32452;51.382;-0.002;2023-10-31T11:35:12;22.80;76.00
46720;DHT22;32452;51.382;-0.002;2023-10-31T11:46:26;20.80;78.40
46720;DHT22;32452;51.382;-0.002;2023-10-31T11:49:12;20.20;79.80
46720;DHT22;32452;51.382;-0.002;2023-10-31T11:51:58;19.60;81.30
46720;DHT22;32452;51.382;-0.002;2023-10-31T11:54:44;19.10;82.70
46720;DHT22;32452;51.382;-0.002;2023-10-31T11:57:29;18.80;83.80
46720;DHT22;32452;51.382;-0.002;2023-10-31T12:00:23;18.50;84.90
46720;DHT22;32452;51.382;-0.002;2023-10-31T12:03:09;18.30;86.40
46720;DHT22;32452;51.382;-0.002;2023-10-31T12:05:56;18.20;87.30
46720;DHT22;32452;51.382;-0.002;2023-10-31T12:08:43;18.20;88.30
46720;DHT22;32452;51.382;-0.002;2023-10-31T12:11:29;18.30;89.20
46720;DHT22;32452;51.382;-0.002;2023-10-31T12:14:18;18.50;90.10
46720;DHT22;32452;51.382;-0.002;2023-10-31T12:17:06;19.00;90.40
46720;DHT22;32452;51.382;-0.002;2023-10-31T12:19:55;19.40;90.20
46720;DHT22;32452;51.382;-0.002;2023-10-31T12:22:40;19.80;89.70
46720;DHT22;32452;51.382;-0.002;2023-10-31T12:25:29;20.00;87.20
46720;DHT22;32452;51.382;-0.002;2023-10-31T12:28:21;20.10;87.40
46720;DHT22;32452;51.382;-0.002;2023-10-31T12:31:07;20.40;86.60
46720;DHT22;32452;51.382;-0.002;2023-10-31T12:33:53;20.50;85.60
46720;DHT22;32452;51.382;-0.002;2023-10-31T12:36:39;20.30;84.80
46720;DHT22;32452;51.382;-0.002;2023-10-31T12:39:26;20.00;84.30
46720;DHT22;32452;51.382;-0.002;2023-10-31T12:42:12;19.60;85.30
46720;DHT22;32452;51.382;-0.002;2023-10-31T12:44:58;19.60;86.70
46720;DHT22;32452;51.382;-0.002;2023-10-31T12:47:44;19.50;85.80
46720;DHT22;32452;51.382;-0.002;2023-10-31T12:50:30;19.30;85.30
46720;DHT22;32452;51.382;-0.002;2023-10-31T12:53:23;19.40;85.90
46720;DHT22;32452;51.382;-0.002;2023-10-31T12:56:09;19.80;84.70
46720;DHT22;32452;51.382;-0.002;2023-10-31T12:58:58;20.10;83.30
46720;DHT22;32452;51.382;-0.002;2023-10-31T13:01:47;20.50;82.10
46720;DHT22;32452;51.382;-0.002;2023-10-31T13:04:33;20.90;82.20
46720;DHT22;32452;51.382;-0.002;2023-10-31T13:07:26;21.20;80.10
46720;DHT22;32452;51.382;-0.002;2023-10-31T13:10:13;21.50;79.00
46720;DHT22;32452;51.382;-0.002;2023-10-31T13:13:00;21.60;77.80
46720;DHT22;32452;51.382;-0.002;2023-10-31T13:15:46;21.50;76.70
46720;DHT22;32452;51.382;-0.002;2023-10-31T13:18:31;21.20;75.90
46720;DHT22;32452;51.382;-0.002;2023-10-31T13:21:17;20.80;76.10
46720;DHT22;32452;51.382;-0.002;2023-10-31T13:24:03;20.50;76.50
46720;DHT22;32452;51.382;-0.002;2023-10-31T13:26:49;20.20;75.60
46720;DHT22;32452;51.382;-0.002;2023-10-31T13:29:37;20.00;75.80
46720;DHT22;32452;51.382;-0.002;2023-10-31T13:32:23;19.80;76.10
46720;DHT22;32452;51.382;-0.002;2023-10-31T13:35:09;19.60;76.50
46720;DHT22;32452;51.382;-0.002;2023-10-31T13:37:56;19.30;76.30
46720;DHT22;32452;51.382;-0.002;2023-10-31T13:40:41;18.90;76.40
46720;DHT22;32452;51.382;-0.002;2023-10-31T13:43:27;18.50;76.90
46720;DHT22;32452;51.382;-0.002;2023-10-31T13:46:12;18.20;77.60
46720;DHT22;32452;51.382;-0.002;2023-10-31T13:48:58;17.90;78.20
46720;DHT22;32452;51.382;-0.002;2023-10-31T13:51:46;17.70;78.90
46720;DHT22;32452;51.382;-0.002;2023-10-31T13:54:32;17.50;79.80
46720;DHT22;32452;51.382;-0.002;2023-10-31T13:57:17;17.30;80.50
46720;DHT22;32452;51.382;-0.002;2023-10-31T14:00:03;17.20;81.30
46720;DHT22;32452;51.382;-0.002;2023-10-31T14:02:49;17.10;82.00
46720;DHT22;32452;51.382;-0.002;2023-10-31T14:05:35;16.90;82.40
46720;DHT22;32452;51.382;-0.002;2023-10-31T14:08:21;16.90;83.60
46720;DHT22;32452;51.382;-0.002;2023-10-31T14:11:06;16.90;84.00
46720;DHT22;32452;51.382;-0.002;2023-10-31T14:13:53;16.90;84.30
46720;DHT22;32452;51.382;-0.002;2023-10-31T14:16:39;16.80;84.60
46720;DHT22;32452;51.382;-0.002;2023-10-31T14:19:25;16.70;85.60
46720;DHT22;32452;51.382;-0.002;2023-10-31T14:22:12;16.80;86.70
46720;DHT22;32452;51.382;-0.002;2023-10-31T14:24:59;16.90;86.90
46720;DHT22;32452;51.382;-0.002;2023-10-31T14:27:44;17.00;86.90
46720;DHT22;32452;51.382;-0.002;2023-10-31T14:30:30;17.10;86.80
46720;DHT22;32452;51.382;-0.002;2023-10-31T14:33:19;17.10;86.90
46720;DHT22;32452;51.382;-0.002;2023-10-31T14:36:06;17.10;87.00
46720;DHT22;32452;51.382;-0.002;2023-10-31T14:38:54;17.10;87.20
46720;DHT22;32452;51.382;-0.002;2023-10-31T14:41:42;17.10;87.60
46720;DHT22;32452;51.382;-0.002;2023-10-31T14:44:28;17.10;87.90
46720;DHT22;32452;51.382;-0.002;2023-10-31T14:47:14;16.90;87.70
46720;DHT22;32452;51.382;-0.002;2023-10-31T14:50:00;16.80;87.90
46720;DHT22;32452;51.382;-0.002;2023-10-31T14:52:49;16.60;88.10
46720;DHT22;32452;51.382;-0.002;2023-10-31T14:55:34;16.50;88.70
46720;DHT22;32452;51.382;-0.002;2023-10-31T14:58:20;16.30;89.30
46720;DHT22;32452;51.382;-0.002;2023-10-31T15:01:06;16.20;89.80
46720;DHT22;32452;51.382;-0.002;2023-10-31T15:03:51;16.10;90.10
46720;DHT22;32452;51.382;-0.002;2023-10-31T15:06:38;16.00;90.40
46720;DHT22;32452;51.382;-0.002;2023-10-31T15:09:23;15.90;90.60
46720;DHT22;32452;51.382;-0.002;2023-10-31T15:12:09;15.80;90.90
46720;DHT22;32452;51.382;-0.002;2023-10-31T15:14:55;15.80;91.20
46720;DHT22;32452;51.382;-0.002;2023-10-31T15:17:41;15.80;91.40
46720;DHT22;32452;51.382;-0.002;2023-10-31T15:20:27;15.70;91.50
46720;DHT22;32452;51.382;-0.002;2023-10-31T15:23:13;15.70;91.80
46720;DHT22;32452;51.382;-0.002;2023-10-31T15:26:00;15.80;92.00
46720;DHT22;32452;51.382;-0.002;2023-10-31T15:28:46;15.70;92.20
46720;DHT22;32452;51.382;-0.002;2023-10-31T15:31:32;15.70;92.30
46720;DHT22;32452;51.382;-0.002;2023-10-31T15:34:17;15.70;92.50
46720;DHT22;32452;51.382;-0.002;2023-10-31T15:37:03;15.70;92.70
46720;DHT22;32452;51.382;-0.002;2023-10-31T15:39:48;15.60;92.90
46720;DHT22;32452;51.382;-0.002;2023-10-31T15:42:36;15.60;93.20
46720;DHT22;32452;51.382;-0.002;2023-10-31T15:45:22;15.60;93.30
46720;DHT22;32452;51.382;-0.002;2023-10-31T15:48:08;15.50;93.50
46720;DHT22;32452;51.382;-0.002;2023-10-31T15:50:54;15.50;93.60
46720;DHT22;32452;51.382;-0.002;2023-10-31T15:53:39;15.40;93.80
46720;DHT22;32452;51.382;-0.002;2023-10-31T15:56:25;15.30;93.90
46720;DHT22;32452;51.382;-0.002;2023-10-31T15:59:10;15.30;94.10
46720;DHT22;32452;51.382;-0.002;2023-10-31T16:01:56;15.20;94.30
46720;DHT22;32452;51.382;-0.002;2023-10-31T16:04:42;15.20;94.50
46720;DHT22;32452;51.382;-0.002;2023-10-31T16:07:27;15.00;94.80
46720;DHT22;32452;51.382;-0.002;2023-10-31T16:10:13;15.00;95.00
46720;DHT22;32452;51.382;-0.002;2023-10-31T16:12:58;14.90;95.30
46720;DHT22;32452;51.382;-0.002;2023-10-31T16:15:44;14.80;95.60
46720;DHT22;32452;51.382;-0.002;2023-10-31T16:18:30;14.70;95.80
46720;DHT22;32452;51.382;-0.002;2023-10-31T16:21:17;14.70;96.10
46720;DHT22;32452;51.382;-0.002;2023-10-31T16:24:02;14.60;96.30
46720;DHT22;32452;51.382;-0.002;2023-10-31T16:26:48;14.50;96.60
46720;DHT22;32452;51.382;-0.002;2023-10-31T16:29:33;14.40;96.80
46720;DHT22;32452;51.382;-0.002;2023-10-31T16:32:19;14.40;97.10
46720;DHT22;32452;51.382;-0.002;2023-10-31T16:35:05;14.40;97.30
46720;DHT22;32452;51.382;-0.002;2023-10-31T16:37:51;14.30;97.50
46720;DHT22;32452;51.382;-0.002;2023-10-31T16:40:38;14.30;97.80
46720;DHT22;32452;51.382;-0.002;2023-10-31T16:43:23;14.20;98.00
46720;DHT22;32452;51.382;-0.002;2023-10-31T16:46:09;14.20;98.20
46720;DHT22;32452;51.382;-0.002;2023-10-31T16:48:54;14.20;98.40
46720;DHT22;32452;51.382;-0.002;2023-10-31T16:51:40;14.10;98.50
46720;DHT22;32452;51.382;-0.002;2023-10-31T16:54:26;14.10;98.70
46720;DHT22;32452;51.382;-0.002;2023-10-31T16:57:11;14.00;98.90
46720;DHT22;32452;51.382;-0.002;2023-10-31T16:59:57;14.00;99.10
46720;DHT22;32452;51.382;-0.002;2023-10-31T17:02:43;14.00;99.30
46720;DHT22;32452;51.382;-0.002;2023-10-31T17:05:28;14.00;99.50
46720;DHT22;32452;51.382;-0.002;2023-10-31T17:08:14;14.00;99.70
46720;DHT22;32452;51.382;-0.002;2023-10-31T17:11:01;13.90;99.80
46720;DHT22;32452;51.382;-0.002;2023-10-31T17:13:46;13.90;99.90
46720;DHT22;32452;51.382;-0.002;2023-10-31T17:16:32;13.90;99.90
46720;DHT22;32452;51.382;-0.002;2023-10-31T17:19:17;13.80;99.90
46720;DHT22;32452;51.382;-0.002;2023-10-31T17:22:03;13.80;99.90
46720;DHT22;32452;51.382;-0.002;2023-10-31T17:24:49;13.80;99.90
46720;DHT22;32452;51.382;-0.002;2023-10-31T17:27:37;13.70;99.90
46720;DHT22;32452;51.382;-0.002;2023-10-31T17:30:23;13.70;99.90
46720;DHT22;32452;51.382;-0.002;2023-10-31T17:33:12;13.60;99.90